createdAt,value
2019-04-19T00:01:24.981Z,8.30
2019-04-19T00:03:57.285Z,9.93
2019-04-19T00:06:34.473Z,7.70
2019-04-19T00:09:17.616Z,11.13
2019-04-19T00:11:40.254Z,9.63
2019-04-19T00:14:04.375Z,10.67
2019-04-19T00:16:34.201Z,8.13
2019-04-19T00:19:24.962Z,7.40
2019-04-19T00:21:59.267Z,9.10
2019-04-19T00:24:05.984Z,7.40
2019-04-19T00:26:35.976Z,8.70
2019-04-19T00:29:11.719Z,8.80
2019-04-19T00:31:46.357Z,7.90
2019-04-19T00:34:08.267Z,8.90
2019-04-19T00:36:38.436Z,8.50
2019-04-19T00:39:38.461Z,9.47
2019-04-19T00:42:25.861Z,8.30
2019-04-19T00:45:04.969Z,14.10
2019-04-19T00:47:35.441Z,7.63
2019-04-19T00:49:56.753Z,7.77
2019-04-19T00:52:38.150Z,7.80
2019-04-19T00:55:00.193Z,7.23
2019-04-19T00:57:30.016Z,8.00
2019-04-19T00:59:54.605Z,9.63
2019-04-19T01:02:23.594Z,8.57
2019-04-19T01:04:59.608Z,7.77
2019-04-19T01:07:29.889Z,7.83
2019-04-19T01:10:16.006Z,7.43
2019-04-19T01:12:46.277Z,12.83
2019-04-19T01:15:11.941Z,9.07
2019-04-19T01:17:50.017Z,7.90
2019-04-19T01:20:06.321Z,9.97
2019-04-19T01:22:33.494Z,9.00
2019-04-19T01:25:14.066Z,9.27
2019-04-19T01:27:36.457Z,8.37
2019-04-19T01:30:06.319Z,8.27
2019-04-19T01:32:47.019Z,9.97
2019-04-19T01:35:12.230Z,10.37
2019-04-19T01:37:39.043Z,8.43
2019-04-19T01:40:21.291Z,10.40
2019-04-19T01:42:57.804Z,9.33
2019-04-19T01:45:53.273Z,8.60
2019-04-19T01:48:29.783Z,7.87
2019-04-19T01:51:15.018Z,8.70
2019-04-19T01:53:46.236Z,10.33
2019-04-19T01:56:06.337Z,8.60
2019-04-19T01:58:31.868Z,7.83
2019-04-19T02:01:03.375Z,8.13
2019-04-19T02:03:40.500Z,13.47
2019-04-19T02:06:09.137Z,8.47
2019-04-19T02:08:42.212Z,8.77
2019-04-19T02:11:37.409Z,9.37
2019-04-19T02:14:04.796Z,8.60
2019-04-19T02:16:30.212Z,7.90
2019-04-19T02:19:07.588Z,8.33
2019-04-19T02:21:35.000Z,8.87
2019-04-19T02:24:03.844Z,9.83
2019-04-19T02:26:34.213Z,11.20
2019-04-19T02:29:10.279Z,9.53
2019-04-19T02:32:00.817Z,8.90
2019-04-19T02:34:33.844Z,9.20
2019-04-19T02:39:41.779Z,9.00
2019-04-19T02:42:16.195Z,9.80
2019-04-19T02:44:46.016Z,7.77
2019-04-19T02:49:42.948Z,9.87
2019-04-19T02:52:22.379Z,8.20
2019-04-19T02:54:50.756Z,10.87
2019-04-19T02:57:49.072Z,9.43
2019-04-19T03:00:55.058Z,8.67
2019-04-19T03:03:21.418Z,10.73
2019-04-19T03:05:51.756Z,8.87
2019-04-19T03:07:57.739Z,9.33
2019-04-19T03:10:29.472Z,10.30
2019-04-19T03:13:12.939Z,9.30
2019-04-19T03:18:26.008Z,8.67
2019-04-19T03:20:44.523Z,11.07
2019-04-19T03:23:17.931Z,9.97
2019-04-19T03:25:45.245Z,9.63
2019-04-19T03:28:15.414Z,8.97
2019-04-19T03:33:33.706Z,9.63
2019-04-19T03:35:59.457Z,10.80
2019-04-19T03:38:29.616Z,8.70
2019-04-19T03:40:57.510Z,9.30
2019-04-19T03:43:42.628Z,9.20
2019-04-19T03:46:08.223Z,11.20
2019-04-19T03:48:39.356Z,8.33
2019-04-19T03:51:10.090Z,9.87
2019-04-19T03:53:54.171Z,8.83
2019-04-19T03:56:17.485Z,8.83
2019-04-19T03:58:26.965Z,11.13
2019-04-19T04:00:56.114Z,8.47
2019-04-19T04:03:31.281Z,10.27
2019-04-19T04:05:57.061Z,7.90
2019-04-19T04:08:32.514Z,11.97
2019-04-19T04:11:26.809Z,9.97
2019-04-19T04:14:12.646Z,9.80
2019-04-19T04:16:43.629Z,8.40
2019-04-19T04:19:10.383Z,8.87
2019-04-19T04:21:47.831Z,10.00
2019-04-19T04:24:24.011Z,11.63
2019-04-19T04:26:58.136Z,10.13
2019-04-19T04:29:27.429Z,10.27
2019-04-19T04:32:04.525Z,11.47
2019-04-19T04:34:37.516Z,9.60
2019-04-19T04:37:12.487Z,8.07
2019-04-19T04:39:28.407Z,8.00
2019-04-19T04:42:11.289Z,9.40
2019-04-19T04:45:01.284Z,9.10
2019-04-19T04:47:38.561Z,8.67
2019-04-19T04:50:46.759Z,9.07
2019-04-19T04:52:58.158Z,11.73
2019-04-19T04:55:38.948Z,10.83
2019-04-19T04:58:07.222Z,9.17
2019-04-19T05:00:45.247Z,7.80
2019-04-19T05:03:22.973Z,8.13
2019-04-19T05:06:05.270Z,7.27
2019-04-19T05:08:31.501Z,8.17
2019-04-19T05:11:02.876Z,8.80
2019-04-19T05:13:29.378Z,8.23
2019-04-19T05:16:11.370Z,7.40
2019-04-19T05:18:30.530Z,7.87
2019-04-19T05:20:58.225Z,7.57
2019-04-19T05:23:32.234Z,6.77
2019-04-19T05:26:21.494Z,8.13
2019-04-19T05:28:37.534Z,7.43
2019-04-19T05:30:56.726Z,7.47
2019-04-19T05:33:34.486Z,7.77
2019-04-19T05:36:15.291Z,7.53
2019-04-19T05:38:57.572Z,7.50
2019-04-19T05:41:26.235Z,8.03
2019-04-19T05:44:23.388Z,8.43
2019-04-19T05:46:51.827Z,6.73
2019-04-19T05:49:18.300Z,7.57
2019-04-19T05:54:06.974Z,7.50
2019-04-19T05:56:38.194Z,7.60
2019-04-19T05:59:12.723Z,10.13
2019-04-19T06:01:49.971Z,6.80
2019-04-19T06:04:21.133Z,7.57
2019-04-19T06:06:56.959Z,7.43
2019-04-19T06:09:09.147Z,7.27
2019-04-19T06:11:41.663Z,6.90
2019-04-19T06:14:34.221Z,8.10
2019-04-19T06:17:11.267Z,7.37
2019-04-19T06:19:47.031Z,8.20
2019-04-19T06:22:13.143Z,8.30
2019-04-19T06:24:53.227Z,9.57
2019-04-19T06:27:35.221Z,8.67
2019-04-19T06:30:04.750Z,8.50
2019-04-19T06:32:27.974Z,8.30
2019-04-19T06:34:54.082Z,10.20
2019-04-19T06:37:15.338Z,8.00
2019-04-19T06:39:41.616Z,7.90
2019-04-19T06:42:13.619Z,8.63
2019-04-19T06:45:03.473Z,8.13
2019-04-19T06:47:21.870Z,9.30
2019-04-19T06:49:45.797Z,9.63
2019-04-19T06:52:21.807Z,8.50
2019-04-19T06:54:48.079Z,8.50
2019-04-19T06:57:26.697Z,8.20
2019-04-19T07:00:02.738Z,7.77
2019-04-19T07:02:22.139Z,8.50
2019-04-19T07:05:10.616Z,7.90
2019-04-19T07:07:43.954Z,9.37
2019-04-19T07:10:25.477Z,8.03
2019-04-19T07:12:48.162Z,7.97
2019-04-19T07:15:25.856Z,8.33
2019-04-19T07:17:41.933Z,8.23
2019-04-19T07:20:14.930Z,7.37
2019-04-19T07:22:46.758Z,8.00
2019-04-19T07:25:24.932Z,8.03
2019-04-19T07:27:44.250Z,7.73
2019-04-19T07:30:06.816Z,8.10
2019-04-19T07:32:43.864Z,7.97
2019-04-19T07:35:23.297Z,8.30
2019-04-19T07:38:03.447Z,7.93
2019-04-19T07:40:33.919Z,7.50
2019-04-19T07:42:59.002Z,7.60
2019-04-19T07:45:30.132Z,8.37
2019-04-19T07:48:03.999Z,7.80
2019-04-19T07:50:39.238Z,7.33
2019-04-19T07:53:02.617Z,7.37
2019-04-19T07:55:37.187Z,7.57
2019-04-19T08:03:41.035Z,8.27
2019-04-19T08:06:02.028Z,7.90
2019-04-19T08:08:45.171Z,6.90
2019-04-19T08:11:07.906Z,7.47
2019-04-19T08:13:43.930Z,6.63
2019-04-19T08:16:04.405Z,6.83
2019-04-19T08:28:28.025Z,7.47
2019-04-19T08:30:51.906Z,6.73
2019-04-19T08:33:19.382Z,7.57
2019-04-19T08:35:54.852Z,5.87
2019-04-19T08:38:27.070Z,5.67
2019-04-19T08:41:05.970Z,6.27
2019-04-19T08:43:41.579Z,5.77
2019-04-19T08:46:11.118Z,5.57
2019-04-19T08:49:05.057Z,5.20
2019-04-19T08:51:48.783Z,5.50
2019-04-19T08:54:43.649Z,4.90
2019-04-19T08:56:57.449Z,5.03
2019-04-19T08:59:44.331Z,5.07
2019-04-19T09:02:09.533Z,5.57
2019-04-19T09:04:39.799Z,5.10
2019-04-19T09:09:50.688Z,4.77
2019-04-19T09:12:12.874Z,4.87
2019-04-19T09:14:48.385Z,4.70
2019-04-19T09:17:24.635Z,4.33
2019-04-19T09:20:05.832Z,5.90
2019-04-19T09:22:23.145Z,5.57
2019-04-19T09:24:44.963Z,4.90
2019-04-19T09:27:32.823Z,4.63
2019-04-19T09:29:58.506Z,5.30
2019-04-19T09:32:17.431Z,4.50
2019-04-19T09:34:52.480Z,4.47
2019-04-19T09:37:23.711Z,4.70
2019-04-19T09:39:55.318Z,5.07
2019-04-19T09:42:31.406Z,4.03
2019-04-19T09:44:55.027Z,5.57
2019-04-19T09:47:20.834Z,5.33
2019-04-19T09:50:03.941Z,4.63
2019-04-19T09:52:44.445Z,5.10
2019-04-19T09:55:17.291Z,4.40
2019-04-19T09:57:44.936Z,4.87
2019-04-19T10:00:07.280Z,4.70
2019-04-19T10:02:39.274Z,4.37
2019-04-19T10:05:03.017Z,4.30
2019-04-19T10:07:34.664Z,4.73
2019-04-19T10:10:10.767Z,5.60
2019-04-19T10:12:37.772Z,4.07
2019-04-19T10:15:11.832Z,5.00
2019-04-19T10:17:42.643Z,3.83
2019-04-19T10:20:12.977Z,5.37
2019-04-19T10:22:43.268Z,4.80
2019-04-19T10:25:12.892Z,4.57
2019-04-19T10:27:45.468Z,5.00
2019-04-19T10:30:32.352Z,4.57
2019-04-19T10:33:02.477Z,4.70
2019-04-19T10:35:31.939Z,4.27
2019-04-19T10:38:01.889Z,4.30
2019-04-19T10:40:31.764Z,5.33
2019-04-19T10:43:01.155Z,4.73
2019-04-19T10:45:31.987Z,5.50
2019-04-19T10:48:02.207Z,4.43
2019-04-19T10:50:46.767Z,5.77
2019-04-19T10:53:14.528Z,7.50
2019-04-19T10:55:50.331Z,5.03
2019-04-19T10:58:21.278Z,4.73
2019-04-19T11:00:51.415Z,4.80
2019-04-19T11:03:23.214Z,4.87
2019-04-19T11:05:54.512Z,4.50
2019-04-19T11:08:24.475Z,4.07
2019-04-19T11:10:53.903Z,4.10
2019-04-19T11:13:27.169Z,4.33
2019-04-19T11:15:56.229Z,6.13
2019-04-19T11:18:25.649Z,5.20
2019-04-19T11:20:56.298Z,5.30
2019-04-19T11:23:27.128Z,4.50
2019-04-19T11:25:56.949Z,4.43
2019-04-19T11:28:27.104Z,4.10
2019-04-19T11:31:05.177Z,4.03
2019-04-19T11:33:35.205Z,4.30
2019-04-19T11:36:05.697Z,5.13
2019-04-19T11:38:36.826Z,2.73
2019-04-19T11:41:07.053Z,3.83
2019-04-19T11:43:37.727Z,3.40
2019-04-19T11:46:07.044Z,5.27
2019-04-19T11:48:37.549Z,3.60
2019-04-19T11:51:07.758Z,3.40
2019-04-19T11:53:48.727Z,3.47
2019-04-19T11:56:57.248Z,5.17
2019-04-19T11:59:45.872Z,3.70
2019-04-19T12:02:22.778Z,2.83
2019-04-19T12:04:52.426Z,2.90
2019-04-19T12:07:22.219Z,3.17
2019-04-19T12:09:54.480Z,3.90
2019-04-19T12:12:23.881Z,3.17
2019-04-19T12:14:53.391Z,3.57
2019-04-19T12:17:23.051Z,4.87
2019-04-19T12:19:57.748Z,2.90
2019-04-19T12:22:23.663Z,3.53
2019-04-19T12:24:55.536Z,3.47
2019-04-19T12:27:25.650Z,2.40
2019-04-19T12:29:56.907Z,2.60
2019-04-19T12:32:35.137Z,3.60
2019-04-19T12:35:04.749Z,3.43
2019-04-19T12:37:35.381Z,2.93
2019-04-19T12:40:06.591Z,3.53
2019-04-19T12:42:36.017Z,3.30
2019-04-19T12:45:08.187Z,3.87
2019-04-19T12:47:38.380Z,2.83
2019-04-19T12:50:10.705Z,3.33
2019-04-19T12:52:40.076Z,3.60
2019-04-19T12:55:10.644Z,3.47
2019-04-19T12:57:45.817Z,3.93
2019-04-19T13:00:16.176Z,4.10
2019-04-19T13:02:53.858Z,3.60
2019-04-19T13:05:35.570Z,3.50
2019-04-19T13:08:05.280Z,3.80
2019-04-19T13:10:35.372Z,3.50
2019-04-19T13:13:05.578Z,2.97
2019-04-19T13:15:34.846Z,3.03
2019-04-19T13:18:04.557Z,3.23
2019-04-19T13:20:36.956Z,3.37
2019-04-19T13:23:06.245Z,3.17
2019-04-19T13:25:35.721Z,3.30
2019-04-19T13:28:06.158Z,3.37
2019-04-19T13:30:43.235Z,4.50
2019-04-19T13:33:06.508Z,3.57
2019-04-19T13:35:37.240Z,4.47
2019-04-19T13:38:21.117Z,3.93
2019-04-19T13:41:09.331Z,3.90
2019-04-19T13:43:38.711Z,3.77
2019-04-19T13:46:08.617Z,4.10
2019-04-19T13:48:38.765Z,4.40
2019-04-19T13:51:08.859Z,4.37
2019-04-19T13:53:41.143Z,4.03
2019-04-19T13:56:10.862Z,4.57
2019-04-19T13:58:40.749Z,4.53
2019-04-19T14:01:10.153Z,4.03
2019-04-19T14:03:39.534Z,4.43
2019-04-19T14:06:08.816Z,5.23
2019-04-19T14:08:37.996Z,5.50
2019-04-19T14:11:07.357Z,4.70
2019-04-19T14:13:37.037Z,5.10
2019-04-19T14:16:07.065Z,4.33
2019-04-19T14:18:37.160Z,4.33
2019-04-19T14:21:06.906Z,4.90
2019-04-19T14:23:37.506Z,4.53
2019-04-19T14:26:07.665Z,3.90
2019-04-19T14:28:37.136Z,4.23
2019-04-19T14:31:06.775Z,4.23
2019-04-19T14:33:37.149Z,4.63
2019-04-19T14:36:06.466Z,3.90
2019-04-19T14:38:36.023Z,5.30
2019-04-19T14:41:07.253Z,4.10
2019-04-19T14:43:37.013Z,3.77
2019-04-19T14:46:06.816Z,3.63
2019-04-19T14:48:40.016Z,4.33
2019-04-19T14:51:15.452Z,4.53
2019-04-19T14:53:40.841Z,3.93
2019-04-19T14:56:11.417Z,3.57
2019-04-19T14:58:41.020Z,4.07
2019-04-19T15:01:47.152Z,3.70
2019-04-19T15:04:28.801Z,4.50
2019-04-19T15:06:59.799Z,4.00
2019-04-19T15:09:29.926Z,4.80
2019-04-19T15:12:00.470Z,4.30
2019-04-19T15:14:30.582Z,4.40
2019-04-19T15:17:00.589Z,4.67
2019-04-19T15:19:29.911Z,4.57
2019-04-19T15:21:59.105Z,4.47
2019-04-19T15:24:28.815Z,4.40
2019-04-19T15:26:58.912Z,4.30
2019-04-19T15:29:29.118Z,5.03
2019-04-19T15:31:59.891Z,4.60
2019-04-19T15:34:29.625Z,4.37
2019-04-19T15:36:59.880Z,4.33
2019-04-19T15:39:29.335Z,3.83
2019-04-19T15:42:00.144Z,4.73
2019-04-19T15:44:30.692Z,3.90
2019-04-19T15:47:03.327Z,4.10
2019-04-19T15:49:31.737Z,4.50
2019-04-19T15:52:01.897Z,4.30
2019-04-19T15:54:32.187Z,4.80
2019-04-19T15:57:02.549Z,4.57
2019-04-19T15:59:32.812Z,4.20
2019-04-19T16:02:28.063Z,5.03
2019-04-19T16:05:15.960Z,5.43
2019-04-19T16:08:01.626Z,5.30
2019-04-19T16:10:55.735Z,5.00
2019-04-19T16:13:27.757Z,6.47
2019-04-19T16:15:56.581Z,4.77
2019-04-19T16:18:26.410Z,5.93
2019-04-19T16:20:56.981Z,5.07
2019-04-19T16:23:28.035Z,5.40
2019-04-19T16:25:59.165Z,4.00
2019-04-19T16:28:29.715Z,4.40
2019-04-19T16:31:00.114Z,4.27
2019-04-19T16:33:29.901Z,5.23
2019-04-19T16:36:00.799Z,4.80
2019-04-19T16:38:30.668Z,4.40
2019-04-19T16:41:00.979Z,4.60
2019-04-19T16:43:31.330Z,5.60
2019-04-19T16:46:09.853Z,4.77
2019-04-19T16:48:32.729Z,4.53
2019-04-19T16:51:02.134Z,4.37
2019-04-19T16:53:34.009Z,5.53
2019-04-19T16:56:03.637Z,4.90
2019-04-19T16:58:33.301Z,4.63
2019-04-19T17:01:03.107Z,4.57
2019-04-19T17:03:32.604Z,4.40
2019-04-19T17:06:02.624Z,4.37
2019-04-19T17:08:32.048Z,4.23
2019-04-19T17:11:01.794Z,4.53
2019-04-19T17:13:31.412Z,12.17
2019-04-19T17:16:09.269Z,4.13
2019-04-19T17:19:07.127Z,4.30
2019-04-19T17:21:49.715Z,5.53
2019-04-19T17:24:11.215Z,4.57
2019-04-19T17:26:40.704Z,3.77
2019-04-19T17:29:10.791Z,4.90
2019-04-19T17:31:40.573Z,3.97
2019-04-19T17:34:11.898Z,4.37
2019-04-19T17:36:42.217Z,4.90
2019-04-19T17:39:12.927Z,3.93
2019-04-19T17:41:42.973Z,4.40
2019-04-19T17:44:13.528Z,5.80
2019-04-19T17:46:44.689Z,4.43
2019-04-19T17:49:14.825Z,4.70
2019-04-19T17:51:57.751Z,5.33
2019-04-19T17:54:19.697Z,3.57
2019-04-19T17:56:47.160Z,3.83
2019-04-19T17:59:18.412Z,4.30
2019-04-19T18:01:48.395Z,6.43
2019-04-19T18:04:18.253Z,26.80
2019-04-19T18:06:54.324Z,5.43
2019-04-19T18:09:21.153Z,3.80
2019-04-19T18:11:51.379Z,4.30
2019-04-19T18:14:20.980Z,3.87
2019-04-19T18:16:50.581Z,7.63
2019-04-19T18:19:27.671Z,4.80
2019-04-19T18:21:52.123Z,11.43
2019-04-19T18:24:27.222Z,10.40
2019-04-19T18:26:54.653Z,9.97
2019-04-19T18:29:28.378Z,7.90
2019-04-19T18:32:08.157Z,11.37
2019-04-19T18:34:45.668Z,17.43
2019-04-19T18:37:17.829Z,7.23
2019-04-19T18:39:47.859Z,7.20
2019-04-19T18:42:17.827Z,5.20
2019-04-19T18:44:52.478Z,5.97
2019-04-19T18:47:18.716Z,4.93
2019-04-19T18:49:48.204Z,5.23
2019-04-19T18:52:35.416Z,5.23
2019-04-19T18:54:57.790Z,6.53
2019-04-19T18:57:20.247Z,4.87
2019-04-19T18:59:53.500Z,5.23
2019-04-19T19:02:26.642Z,5.67
2019-04-19T19:05:01.479Z,6.30
2019-04-19T19:07:28.383Z,5.97
2019-04-19T19:10:03.738Z,6.07
2019-04-19T19:12:34.734Z,7.40
2019-04-19T19:15:02.981Z,9.77
2019-04-19T19:17:33.946Z,9.00
2019-04-19T19:20:09.363Z,9.40
2019-04-19T19:22:54.180Z,10.77
2019-04-19T19:25:23.652Z,10.10
2019-04-19T19:27:38.265Z,9.97
2019-04-19T19:30:09.034Z,11.50
2019-04-19T19:32:42.686Z,11.23
2019-04-19T19:35:17.727Z,10.87
2019-04-19T19:37:43.641Z,11.90
2019-04-19T19:40:25.328Z,10.30
2019-04-19T19:43:04.943Z,10.67
2019-04-19T19:45:31.216Z,11.80
2019-04-19T19:48:08.033Z,9.63
2019-04-19T19:50:44.418Z,9.83
2019-04-19T19:53:24.345Z,7.87
2019-04-19T19:55:44.582Z,9.27
2019-04-19T19:58:00.665Z,9.53
2019-04-19T20:00:40.870Z,8.73
2019-04-19T20:03:08.937Z,8.70
2019-04-19T20:05:33.067Z,10.27
2019-04-19T20:08:01.604Z,8.03
2019-04-19T20:10:35.330Z,8.60
2019-04-19T20:13:07.846Z,7.00
2019-04-19T20:15:37.804Z,7.80
2019-04-19T20:18:04.810Z,10.67
2019-04-19T20:20:38.920Z,10.53
2019-04-19T20:23:06.551Z,9.30
2019-04-19T20:25:44.659Z,7.70
2019-04-19T20:28:07.307Z,8.70
2019-04-19T20:30:41.788Z,8.17
2019-04-19T20:33:11.707Z,6.90
2019-04-19T20:35:39.313Z,10.13
2019-04-19T20:38:11.312Z,13.00
2019-04-19T20:40:49.315Z,9.20
2019-04-19T20:43:31.961Z,8.63
2019-04-19T20:45:46.207Z,7.20
2019-04-19T20:48:18.930Z,9.90
2019-04-19T20:50:52.214Z,8.03
2019-04-19T20:53:31.141Z,8.37
2019-04-19T20:56:23.432Z,8.07
2019-04-19T20:58:33.093Z,7.97
2019-04-19T21:00:56.895Z,10.77
2019-04-19T21:03:30.782Z,9.80
2019-04-19T21:05:58.102Z,10.23
2019-04-19T21:08:28.407Z,10.73
2019-04-19T21:11:02.783Z,9.60
2019-04-19T21:13:29.303Z,8.43
2019-04-19T21:16:00.244Z,7.73
2019-04-19T21:18:30.832Z,9.77
2019-04-19T21:21:03.771Z,7.43
2019-04-19T21:23:34.246Z,7.33
2019-04-19T21:26:05.406Z,7.70
2019-04-19T21:28:40.538Z,7.67
2019-04-19T21:31:06.118Z,7.27
2019-04-19T21:33:35.271Z,7.37
2019-04-19T21:36:09.355Z,7.93
2019-04-19T21:38:35.993Z,7.40
2019-04-19T21:41:15.282Z,9.30
2019-04-19T21:43:40.066Z,7.30
2019-04-19T21:46:07.994Z,9.40
2019-04-19T21:48:39.946Z,8.27
2019-04-19T21:51:10.758Z,8.80
2019-04-19T21:53:43.892Z,8.97
2019-04-19T21:56:16.145Z,8.27
2019-04-19T21:58:47.458Z,8.50
2019-04-19T22:01:17.803Z,8.37
2019-04-19T22:03:48.395Z,7.63
2019-04-19T22:06:24.079Z,9.03
2019-04-19T22:08:50.185Z,7.83
2019-04-19T22:11:20.568Z,9.10
2019-04-19T22:13:53.476Z,8.80
2019-04-19T22:16:28.870Z,8.57
2019-04-19T22:18:54.644Z,11.17
2019-04-19T22:21:22.996Z,8.33
2019-04-19T22:23:54.743Z,10.33
2019-04-19T22:26:30.413Z,9.53
2019-04-19T22:28:55.505Z,11.20
2019-04-19T22:31:29.127Z,8.67
2019-04-19T22:33:56.674Z,8.53
2019-04-19T22:36:30.006Z,8.50
2019-04-19T22:39:00.153Z,8.93
2019-04-19T22:41:28.647Z,12.93
2019-04-19T22:43:58.692Z,11.70
2019-04-19T22:46:33.101Z,8.73
2019-04-19T22:49:03.485Z,10.43
2019-04-19T22:51:30.804Z,9.20
2019-04-19T22:54:00.905Z,9.23
2019-04-19T22:56:36.795Z,9.90
2019-04-19T22:59:05.544Z,8.40
2019-04-19T23:02:03.929Z,10.37
2019-04-19T23:04:31.297Z,12.27
2019-04-19T23:07:04.024Z,9.30
2019-04-19T23:09:34.827Z,9.17
2019-04-19T23:12:04.653Z,9.13
2019-04-19T23:14:53.014Z,8.43
2019-04-19T23:17:28.447Z,9.53
2019-04-19T23:19:54.235Z,11.00
2019-04-19T23:22:29.794Z,10.73
2019-04-19T23:25:00.334Z,11.13
2019-04-19T23:27:37.963Z,8.93
2019-04-19T23:30:14.911Z,9.27
2019-04-19T23:32:41.147Z,10.20
2019-04-19T23:35:11.999Z,9.87
2019-04-19T23:37:42.455Z,10.67
2019-04-19T23:40:13.263Z,11.23
2019-04-19T23:42:45.949Z,9.10
2019-04-19T23:45:14.656Z,8.57
2019-04-19T23:47:48.258Z,9.43
2019-04-19T23:50:17.606Z,8.93
2019-04-19T23:52:52.785Z,9.27
2019-04-19T23:55:18.600Z,9.13
2019-04-19T23:57:51.112Z,10.07
